METAR Data
IDs: Format: Raw Decoded Include TAF

Data at: 1519 UTC 21 Sep 2018

KBNO 211453Z AUTO 00000KT 10SM CLR 05/M07 A3017 RMK AO2 SLP215 T00501072 53003
KBNO 211353Z AUTO 30004KT 10SM CLR M03/M09 A3016 RMK AO2 SLP215 T10281094
KBNO 211253Z AUTO 25003KT 10SM CLR M02/M09 A3015 RMK AO2 SLP204 T10171089
KBNO 211153Z AUTO 01004KT 10SM CLR M02/M08 A3016 RMK AO2 SLP204 T10171078 10050 21022 53001
KBNO 211053Z AUTO 28007KT 10SM CLR 01/M08 A3016 RMK AO2 SLP203 T00061083
KBNO 210953Z AUTO 28005KT 10SM CLR M01/M10 A3015 RMK AO2 SLP201 T10061100
KBNO 210853Z AUTO 35003KT 10SM CLR 00/M09 A3015 RMK AO2 SLP204 T00001094 53000
KBNO 210753Z AUTO 27006KT 10SM CLR 04/M08 A3015 RMK AO2 SLP198 T00441078 402171044
KBNO 210653Z AUTO 28007KT 10SM CLR 03/M08 A3015 RMK AO2 SLP202 T00331078
KBNO 210553Z AUTO 27007KT 10SM CLR 04/M07 A3015 RMK AO2 SLP205 T00391067 10211 20039 50008
KBNO 210453Z AUTO 26006KT 10SM CLR 08/M08 A3015 RMK AO2 SLP204 T00831083
KBNO 210353Z AUTO 00000KT 10SM CLR 08/M08 A3014 RMK AO2 SLP207 T00781083
KBNO 210253Z AUTO 25005KT 10SM CLR 11/M07 A3012 RMK AO2 SLP200 T01061072 53005
KBNO 210153Z AUTO 19005KT 10SM CLR 14/M07 A3011 RMK AO2 SLP200 T01441067
KBNO 210053Z AUTO 18007KT 10SM CLR 20/M09 A3010 RMK AO2 SLP186 T02001089
KBNO 202353Z AUTO 22004KT 10SM CLR 21/M09 A3011 RMK AO2 SLP190 T02111089 10217 20144 56009
KBNO 202253Z AUTO 26007KT 10SM CLR 21/M07 A3011 RMK AO2 SLP189 T02061067
KBNO 202153Z AUTO 25008KT 10SM CLR 21/M06 A3012 RMK AO2 SLP187 T02061061
KBNO 202053Z AUTO 20007KT 10SM CLR 18/M04 A3014 RMK AO2 SLP195 T01831039 58011
KBNO 201953Z AUTO 17009G16KT 10SM CLR 17/M03 A3015 RMK AO2 SLP198 T01721033 $
KBNO 201853Z AUTO 18009G15KT 10SM CLR 16/M03 A3016 RMK AO2 SLP206 T01611028 $
KBNO 201753Z AUTO VRB04KT 10SM CLR 14/M02 A3017 RMK AO2 SLP210 T01391022 10139 21044 50001 $
KBNO 201653Z AUTO 01003KT 10SM CLR 11/M02 A3018 RMK AO2 SLP214 T01061022 $
KBNO 201553Z AUTO 00000KT 10SM CLR 07/M03 A3018 RMK AO2 SLP219 T00671033 $
KBNO 201453Z AUTO 00000KT 10SM CLR 04/M04 A3017 RMK AO2 SLP216 T00391039 53017 $
KBNO 201353Z AUTO 29004KT 10SM CLR M03/M08 A3015 RMK AO2 SLP213 T10331078 $
KBNO 201253Z AUTO 00000KT 10SM CLR M02/M07 A3013 RMK AO2 SLP199 T10171067 $
KBNO 201153Z AUTO 03005KT 10SM CLR M03/M08 A3011 RMK AO2 SLP194 T10331083 10067 21033 53009 $
KBNO 201053Z AUTO 02004KT 10SM CLR M02/M07 A3010 RMK AO2 SLP184 T10171072 $
KBNO 200953Z AUTO 26007KT 10SM CLR 03/M04 A3009 RMK AO2 SLP175 T00281044 $
KBNO 200853Z AUTO 19007KT 10SM CLR 03/M05 A3008 RMK AO2 SLP174 T00331050 53009 $
KBNO 200753Z AUTO 27009KT 10SM CLR 04/M04 A3007 RMK AO2 SLP168 T00441044 402170000 $
KBNO 200653Z AUTO 28007KT 10SM CLR 04/M06 A3006 RMK AO2 SLP168 T00391056 $
KBNO 200553Z AUTO 25007KT 10SM CLR 06/M06 A3005 RMK AO2 SLPNO T00561056 10206 20056 50014 $
KBNO 200453Z AUTO 27009KT 10SM CLR 08/M05 A3005 RMK AO2 SLP167 T00831050 $
KBNO 200353Z AUTO 28008KT 10SM CLR 08/M07 A3003 RMK AO2 SLP169 T00781067 $